createdAt,value
2019-02-16T00:01:01.862Z,23.51
2019-02-16T00:06:10.816Z,20.47
2019-02-16T00:11:20.150Z,22.30
2019-02-16T00:16:29.065Z,24.19
2019-02-16T00:21:38.086Z,21.50
2019-02-16T00:26:47.033Z,21.92
2019-02-16T00:31:56.112Z,19.32
2019-02-16T00:37:05.067Z,19.06
2019-02-16T00:42:14.003Z,18.40
2019-02-16T00:47:23.014Z,20.15
2019-02-16T00:52:31.947Z,21.23
2019-02-16T00:57:41.006Z,22.22
2019-02-16T01:02:49.934Z,19.07
2019-02-16T01:07:58.986Z,21.75
2019-02-16T01:13:07.954Z,18.20
2019-02-16T01:18:16.938Z,19.13
2019-02-16T01:23:25.922Z,19.16
2019-02-16T01:28:34.918Z,19.41
2019-02-16T01:33:45.517Z,19.48
2019-02-16T01:38:52.486Z,17.78
2019-02-16T01:44:01.509Z,17.48
2019-02-16T01:49:10.493Z,20.44
2019-02-16T01:54:20.616Z,21.85
2019-02-16T01:59:19.829Z,21.73
2019-02-16T02:04:28.817Z,18.64
2019-02-16T02:09:37.909Z,20.24
2019-02-16T02:14:46.912Z,19.53
2019-02-16T02:19:56.004Z,21.92
2019-02-16T02:25:05.001Z,22.36
2019-02-16T02:30:14.016Z,20.74
2019-02-16T02:35:23.024Z,16.82
2019-02-16T02:40:32.084Z,16.06
2019-02-16T02:45:41.105Z,18.89
2019-02-16T02:50:50.104Z,20.66
2019-02-16T02:55:59.096Z,24.37
2019-02-16T03:01:08.161Z,25.08
2019-02-16T03:06:17.153Z,23.34
2019-02-16T03:11:26.195Z,25.24
2019-02-16T03:16:35.203Z,26.29
2019-02-16T03:21:44.404Z,27.87
2019-02-16T03:26:53.412Z,27.21
2019-02-16T03:32:02.528Z,25.47
2019-02-16T03:37:11.510Z,26.03
2019-02-16T03:42:20.508Z,25.44
2019-02-16T03:47:29.534Z,22.96
2019-02-16T03:52:38.570Z,22.59
2019-02-16T03:57:47.629Z,26.46
2019-02-16T04:02:56.661Z,26.49
2019-02-16T04:08:05.861Z,25.53
2019-02-16T04:13:14.866Z,24.01
2019-02-16T04:18:23.903Z,23.49
2019-02-16T04:23:32.916Z,26.30
2019-02-16T04:28:42.100Z,25.77
2019-02-16T04:33:51.060Z,22.02
2019-02-16T04:39:00.024Z,23.48
2019-02-16T04:44:08.988Z,24.38
2019-02-16T04:49:17.927Z,24.39
2019-02-16T04:54:26.931Z,21.73
2019-02-16T04:59:35.854Z,21.36
2019-02-16T05:04:44.826Z,23.43
2019-02-16T05:09:53.782Z,22.79
2019-02-16T05:15:02.894Z,22.41
2019-02-16T05:20:11.859Z,21.89
2019-02-16T05:25:20.902Z,23.52
2019-02-16T05:30:29.866Z,25.02
2019-02-16T05:35:38.851Z,25.09
2019-02-16T05:40:47.770Z,25.35
2019-02-16T05:45:56.754Z,21.75
2019-02-16T05:51:05.773Z,22.22
2019-02-16T05:56:15.558Z,22.73
2019-02-16T06:01:24.563Z,21.45
2019-02-16T06:06:33.509Z,20.53
2019-02-16T06:11:42.522Z,21.93
2019-02-16T06:16:51.478Z,22.26
2019-02-16T06:22:00.486Z,23.47
2019-02-16T06:27:09.410Z,22.53
2019-02-16T06:32:18.482Z,23.52
2019-02-16T06:37:27.412Z,25.00
2019-02-16T06:42:36.414Z,22.60
2019-02-16T06:52:54.598Z,21.87
2019-02-16T06:58:03.542Z,21.45
2019-02-16T07:03:12.475Z,23.84
2019-02-16T07:08:21.455Z,22.67
2019-02-16T07:13:30.403Z,21.64
2019-02-16T07:18:39.402Z,19.24
2019-02-16T07:23:48.329Z,20.58
2019-02-16T07:34:03.235Z,21.65
2019-02-16T07:39:12.278Z,23.73
2019-02-16T07:44:21.221Z,27.40
2019-02-16T07:49:30.170Z,24.26
2019-02-16T07:54:39.214Z,25.90
2019-02-16T07:59:48.182Z,25.14
2019-02-16T08:04:57.126Z,25.84
2019-02-16T08:10:06.076Z,26.33
2019-02-16T08:15:15.138Z,30.60
2019-02-16T08:20:24.080Z,28.24
2019-02-16T08:25:33.034Z,29.21
2019-02-16T08:30:41.966Z,30.48
2019-02-16T08:35:50.982Z,26.06
2019-02-16T08:40:59.930Z,28.80
2019-02-16T08:46:08.874Z,26.82
2019-02-16T08:51:17.854Z,31.98
2019-02-16T08:56:26.839Z,30.45
2019-02-16T09:01:35.770Z,30.95
2019-02-16T09:06:44.734Z,32.65
2019-02-16T09:11:53.710Z,32.65
2019-02-16T09:17:02.681Z,34.17
2019-02-16T09:22:13.485Z,35.17
2019-02-16T09:27:20.166Z,33.12
2019-02-16T09:32:29.110Z,32.37
2019-02-16T09:37:38.086Z,37.05
2019-02-16T09:42:47.054Z,36.49
2019-02-16T09:47:56.018Z,33.69
2019-02-16T09:53:04.966Z,34.01
2019-02-16T09:58:13.934Z,30.60
2019-02-16T10:03:22.882Z,32.88
2019-02-16T10:08:31.854Z,33.62
2019-02-16T10:13:40.801Z,34.07
2019-02-16T10:18:49.830Z,34.61
2019-02-16T10:23:58.790Z,34.75
2019-02-16T10:29:07.762Z,34.42
2019-02-16T10:34:16.698Z,35.11
2019-02-16T10:39:25.669Z,34.25
2019-02-16T10:44:34.618Z,31.86
2019-02-16T10:49:43.602Z,31.99
2019-02-16T10:54:52.572Z,33.14
2019-02-16T11:00:01.594Z,35.77
2019-02-16T11:05:10.551Z,34.76
2019-02-16T11:10:19.522Z,34.06
2019-02-16T11:15:30.302Z,34.69
2019-02-16T11:20:36.985Z,34.12
2019-02-16T11:25:45.938Z,34.30
2019-02-16T11:30:54.918Z,33.37
2019-02-16T11:36:03.840Z,35.72
2019-02-16T11:41:18.977Z,33.27
2019-02-16T11:46:21.295Z,34.84
2019-02-16T11:51:30.334Z,34.58
2019-02-16T11:56:39.258Z,30.92
2019-02-16T12:01:48.222Z,33.21
2019-02-16T12:06:57.154Z,33.29
2019-02-16T12:12:06.371Z,33.82
2019-02-16T12:17:15.306Z,33.57
2019-02-16T12:22:24.393Z,31.30
2019-02-16T12:27:33.288Z,30.75
2019-02-16T12:32:42.238Z,33.57
2019-02-16T12:37:51.167Z,30.23
2019-02-16T12:43:00.159Z,33.13
2019-02-16T12:48:09.089Z,31.33
2019-02-16T12:53:18.094Z,32.04
2019-02-16T12:58:27.042Z,29.21
2019-02-16T13:03:36.027Z,30.33
2019-02-16T13:08:44.966Z,33.71
2019-02-16T13:13:53.954Z,29.82
2019-02-16T13:19:02.912Z,34.03
2019-02-16T13:24:11.938Z,31.75
2019-02-16T13:29:20.859Z,28.86
2019-02-16T13:34:29.854Z,30.48
2019-02-16T13:39:38.790Z,31.31
2019-02-16T13:44:47.815Z,30.45
2019-02-16T13:49:56.744Z,32.04
2019-02-16T13:55:05.695Z,30.83
2019-02-16T14:00:15.131Z,32.81
2019-02-16T14:05:24.258Z,32.46
2019-02-16T14:10:33.218Z,30.36
2019-02-16T14:15:42.183Z,31.09
2019-02-16T14:20:51.146Z,31.11
2019-02-16T14:26:00.104Z,33.64
2019-02-16T14:31:09.044Z,32.92
2019-02-16T14:36:18.022Z,33.46
2019-02-16T14:41:26.962Z,31.34
2019-02-16T14:46:35.950Z,33.24
2019-02-16T14:51:44.866Z,34.98
2019-02-16T14:56:53.856Z,33.54
2019-02-16T15:02:02.782Z,34.11
2019-02-16T15:07:11.726Z,34.60
2019-02-16T15:12:20.679Z,35.37
2019-02-16T15:17:29.626Z,32.76
2019-02-16T15:22:38.549Z,37.63
2019-02-16T15:27:47.550Z,31.65
2019-02-16T15:32:56.527Z,36.05
2019-02-16T15:38:05.550Z,36.29
2019-02-16T15:43:14.539Z,34.21
2019-02-16T15:48:23.542Z,35.08
2019-02-16T15:53:32.478Z,35.70
2019-02-16T15:58:41.464Z,34.63
2019-02-16T16:03:50.396Z,36.90
2019-02-16T16:08:59.446Z,35.76
2019-02-16T16:14:08.278Z,38.32
2019-02-16T16:19:15.763Z,34.93
2019-02-16T16:24:24.699Z,36.27
2019-02-16T16:29:33.703Z,36.10
2019-02-16T16:34:42.646Z,34.64
2019-02-16T16:39:51.619Z,35.67
2019-02-16T16:45:00.590Z,38.22
2019-02-16T16:50:16.817Z,37.64
2019-02-16T16:55:18.070Z,36.80
2019-02-16T17:00:27.044Z,36.87
2019-02-16T17:05:36.391Z,34.98
2019-02-16T17:10:45.338Z,35.30
2019-02-16T17:15:54.318Z,38.15
2019-02-16T17:21:03.263Z,34.37
2019-02-16T17:26:12.230Z,37.88
2019-02-16T17:31:21.234Z,38.79
2019-02-16T17:36:30.166Z,40.31
2019-02-16T17:41:39.375Z,38.54
2019-02-16T17:46:48.314Z,37.87
2019-02-16T17:51:57.278Z,44.77
2019-02-16T17:57:06.246Z,43.45
2019-02-16T18:02:15.207Z,41.57
2019-02-16T18:07:24.146Z,34.64
2019-02-16T18:12:33.106Z,38.58
2019-02-16T18:17:42.066Z,38.34
2019-02-16T18:22:51.037Z,41.10
2019-02-16T18:28:00.076Z,44.27
2019-02-16T18:33:09.027Z,44.89
2019-02-16T18:38:18.049Z,44.79
2019-02-16T18:43:27.012Z,46.49
2019-02-16T18:48:36.026Z,41.42
2019-02-16T18:53:45.042Z,46.18
2019-02-16T18:58:53.991Z,45.56
2019-02-16T19:04:02.956Z,54.56
2019-02-16T19:09:12.042Z,43.93
2019-02-16T19:14:20.926Z,43.45
2019-02-16T19:19:29.943Z,46.42
2019-02-16T19:24:38.823Z,51.43
2019-02-16T19:29:47.791Z,48.56
2019-02-16T19:34:56.760Z,51.03
2019-02-16T19:40:05.807Z,38.74
2019-02-16T19:45:14.714Z,35.35
2019-02-16T19:50:23.735Z,38.52
2019-02-16T19:55:32.694Z,54.23
2019-02-16T20:00:41.679Z,51.17
2019-02-16T20:05:50.603Z,47.41
2019-02-16T20:10:59.538Z,44.79
2019-02-16T20:16:08.486Z,52.70
2019-02-16T20:21:15.971Z,48.82
2019-02-16T20:26:24.994Z,42.83
2019-02-16T20:31:33.923Z,39.87
2019-02-16T20:36:42.918Z,48.79
2019-02-16T20:41:51.866Z,48.05
2019-02-16T20:47:00.822Z,46.46
2019-02-16T20:52:09.790Z,55.16
2019-02-16T20:57:18.740Z,54.42
2019-02-16T21:02:27.906Z,59.89
2019-02-16T21:07:36.854Z,53.45
2019-02-16T21:12:45.822Z,46.59
2019-02-16T21:17:54.784Z,42.39
2019-02-16T21:23:03.822Z,43.66
2019-02-16T21:28:12.742Z,44.55
2019-02-16T21:33:21.694Z,59.38
2019-02-16T21:38:30.658Z,51.92
2019-02-16T21:43:39.634Z,45.02
2019-02-16T21:48:48.570Z,48.97
2019-02-16T21:53:57.576Z,53.97
2019-02-16T21:59:07.623Z,54.94
2019-02-16T22:04:16.203Z,72.66
2019-02-16T22:09:23.682Z,53.88
2019-02-16T22:14:32.720Z,63.98
2019-02-16T22:19:41.680Z,57.85
2019-02-16T22:24:50.675Z,61.14
2019-02-16T22:29:59.615Z,65.03
2019-02-16T22:35:08.654Z,63.64
2019-02-16T22:40:17.595Z,59.62
2019-02-16T22:45:26.582Z,64.33
2019-02-16T22:50:35.554Z,74.49
2019-02-16T22:55:44.527Z,65.77
2019-02-16T23:00:53.458Z,71.56
2019-02-16T23:06:02.434Z,75.56
2019-02-16T23:11:11.416Z,71.39
2019-02-16T23:16:20.362Z,65.26
2019-02-16T23:21:29.332Z,57.23
2019-02-16T23:26:38.321Z,52.34
2019-02-16T23:31:47.302Z,64.07
2019-02-16T23:36:56.305Z,68.12
2019-02-16T23:42:05.219Z,68.03
2019-02-16T23:47:14.165Z,73.54
2019-02-16T23:52:25.102Z,69.16
2019-02-16T23:57:31.670Z,69.28
